This is the latest recevied weather packets stored in our database for station/object KE6LRO. If no packets are shown the sender has not sent any weather packets the latest 10 day(s).
| Time | Temp. | Humidity | Pressure | Rain* | Wind** | Luminosity | Snow |
|---|---|---|---|---|---|---|---|
| 1778200297 | 22.22° C | 32% | 1016.8 hPa | 0 mm | - | 260 W/m² | - |
| 1778199993 | 21.67° C | 32% | 1016.7 hPa | 0 mm | - | 260 W/m² | - |
| 1778199691 | 21.67° C | 34% | 1016.7 hPa | 0 mm | - | 284 W/m² | - |
| 1778199386 | 21.11° C | 34% | 1016.7 hPa | 0 mm | - | 302 W/m² | - |
| 1778199082 | 20.56° C | 34% | 1016.8 hPa | 0 mm | - | 134 W/m² | - |
| 1778198778 | 20.56° C | 34% | 1016.8 hPa | 0 mm | - | 131 W/m² | - |
| 1778198476 | 20.56° C | 34% | 1017.1 hPa | 0 mm | - | 119 W/m² | - |
| 1778198173 | 21.11° C | 35% | 1016.9 hPa | 0 mm | - | 163 W/m² | - |
| 1778197870 | 21.67° C | 33% | 1016.9 hPa | 0 mm | - | 209 W/m² | - |
| 1778197566 | 20.56° C | 34% | 1016.8 hPa | 0 mm | - | 396 W/m² | - |
| 1778197263 | 21.11° C | 34% | 1016.8 hPa | 0 mm | - | 165 W/m² | - |
| 1778196960 | 22.22° C | 30% | 1016.6 hPa | 0 mm | - | 144 W/m² | - |
| 1778196659 | 22.22° C | 32% | 1016.7 hPa | 0 mm | - | 422 W/m² | - |
| 1778196354 | 22.22° C | 33% | 1016.6 hPa | 0 mm | - | 435 W/m² | - |
| 1778196052 | 21.67° C | 31% | 1016.7 hPa | 0 mm | - | 458 W/m² | - |
| 1778195748 | 21.67° C | 31% | 1016.7 hPa | 0 mm | - | 464 W/m² | - |
| 1778195446 | 21.67° C | 32% | 1016.6 hPa | 0 mm | - | 126 W/m² | - |
| 1778195142 | 22.22° C | 30% | 1016.8 hPa | 0 mm | - | 144 W/m² | - |
| 1778194839 | 21.67° C | 32% | 1017.1 hPa | 0 mm | - | 533 W/m² | - |
| 1778194533 | 22.22° C | 31% | 1016.7 hPa | 0 mm | - | 140 W/m² | - |
| 1778194230 | 21.67° C | 31% | 1016.8 hPa | 0 mm | - | 545 W/m² | - |
| 1778193926 | 21.67° C | 31% | 1016.7 hPa | 0 mm | - | 555 W/m² | - |
| 1778193622 | 20.56° C | 36% | 1016.9 hPa | 0 mm | - | 307 W/m² | - |
| 1778193319 | 22.22° C | 31% | 1016.9 hPa | 0 mm | - | 143 W/m² | - |
| 1778193016 | 21.67° C | 32% | 1016.8 hPa | 0 mm | - | 152 W/m² | - |
* Rain latest hour (hover to see other rain measurements)
** Current wind speed in m/s (hover to see current wind gust speed)